Time;durP1;ratioP1;P1;durP2;ratioP2;P2;SDS_P1;SDS_P2;PMS_P1;PMS_P2;Temp;Humidity;BMP_temperature;BMP_pressure;BME280_temperature;BME280_humidity;BME280_pressure;Samples;Min_cycle;Max_cycle;Signal;HPM_P1;HPM_P2
2022/04/02 19:09:13;;;;;;;24.80;23.10;;;1.50;93.40;;;;;;6211324;22;20293;-85
2022/04/02 19:11:38;;;;;;;25.17;23.37;;;1.60;93.10;;;;;;6219472;23;20198;-85
2022/04/02 19:14:07;;;;;;;25.20;23.30;;;1.70;92.70;;;;;;6246295;23;20132;-85
2022/04/02 19:16:33;;;;;;;24.83;23.02;;;1.70;91.50;;;;;;6219169;23;20393;-83
2022/04/02 19:18:59;;;;;;;26.75;24.50;;;1.70;91.20;;;;;;6219323;23;20251;-85
2022/04/02 19:21:34;;;;;;;24.30;22.50;;;1.70;91.30;;;;;;6246067;23;20596;-85
2022/04/02 19:24:00;;;;;;;25.00;23.15;;;1.60;91.70;;;;;;6219740;23;20377;-83
2022/04/02 19:26:32;;;;;;;22.50;20.85;;;1.60;93.00;;;;;;6219618;23;20187;-82
2022/04/02 19:29:02;;;;;;;24.00;22.40;;;1.60;93.20;;;;;;6219832;23;20504;-77
2022/04/02 19:31:44;;;;;;;24.45;22.95;;;1.60;93.40;;;;;;6241263;22;20159;-76
2022/04/02 19:34:10;;;;;;;22.40;20.80;;;1.70;92.90;;;;;;6217615;23;20158;-77
2022/04/02 19:36:36;;;;;;;25.00;23.23;;;1.70;91.70;;;;;;6218398;23;20155;-76
2022/04/02 19:39:04;;;;;;;24.58;22.77;;;1.70;91.80;;;;;;6217821;23;20238;-76
2022/04/02 19:41:30;;;;;;;25.08;23.27;;;1.60;92.60;;;;;;6217968;23;20155;-76
2022/04/02 19:43:58;;;;;;;26.63;24.73;;;1.70;93.10;;;;;;6217169;23;20494;-76
2022/04/02 19:46:28;;;;;;;25.85;23.85;;;1.70;92.80;;;;;;6217019;23;20668;-78
2022/04/02 19:48:56;;;;;;;24.80;22.77;;;1.70;92.30;;;;;;6217232;23;20547;-77
2022/04/02 19:51:22;;;;;;;22.77;21.27;;;1.70;92.60;;;;;;6217143;23;20154;-77
2022/04/02 19:53:49;;;;;;;24.88;23.08;;;1.80;91.20;;;;;;6216617;23;20168;-77
2022/04/02 19:56:16;;;;;;;24.35;22.70;;;1.80;90.40;;;;;;6216744;23;20592;-77
2022/04/02 19:58:41;;;;;;;26.45;24.45;;;1.70;91.10;;;;;;6217014;23;20518;-78
2022/04/02 20:01:08;;;;;;;25.30;23.43;;;1.70;91.50;;;;;;6216772;23;20157;-77
2022/04/02 20:03:41;;;;;;;22.73;21.15;;;1.70;91.80;;;;;;6215647;23;20718;-77
2022/04/02 20:06:36;;;;;;;26.15;24.15;;;1.70;92.00;;;;;;6217815;23;20196;-84
2022/04/02 21:08:34;;;;;;;24.63;22.77;;;1.70;91.50;;;;;;6183992;23;20202;-77
2022/04/02 21:11:03;;;;;;;23.58;21.98;;;1.70;91.50;;;;;;6158744;23;20160;-81
2022/04/02 21:13:47;;;;;;;23.67;22.08;;;1.60;91.90;;;;;;6158417;23;20149;-82
2022/04/02 21:16:16;;;;;;;24.58;22.88;;;1.70;92.20;;;;;;6158225;23;20273;-82
2022/04/02 21:18:41;;;;;;;24.17;22.25;;;1.60;91.50;;;;;;6158518;23;20486;-82
2022/04/02 21:21:42;;;;;;;23.13;21.43;;;1.70;91.90;;;;;;6158281;23;20214;-83
2022/04/02 21:24:10;;;;;;;24.48;22.58;;;1.60;91.90;;;;;;6147431;23;20195;-83
2022/04/02 21:26:36;;;;;;;25.98;24.20;;;1.70;91.80;;;;;;6185386;23;20180;-82
2022/04/02 21:29:08;;;;;;;24.50;22.60;;;1.70;91.50;;;;;;6184650;23;20483;-82
2022/04/02 21:31:39;;;;;;;25.45;23.67;;;1.70;91.50;;;;;;6158757;23;20230;-81
2022/04/02 21:34:08;;;;;;;24.17;22.25;;;1.80;90.30;;;;;;6158743;23;20160;-81
2022/04/02 21:36:34;;;;;;;24.00;22.33;;;1.70;90.50;;;;;;6185882;23;20163;-82
2022/04/02 21:39:00;;;;;;;23.60;21.60;;;1.80;90.80;;;;;;6158529;23;20643;-81
2022/04/02 21:41:25;;;;;;;23.57;21.87;;;1.70;90.40;;;;;;6159610;23;20189;-82
2022/04/02 21:43:54;;;;;;;23.83;22.00;;;1.70;91.30;;;;;;6159627;23;20214;-81
2022/04/02 21:46:20;;;;;;;24.90;22.85;;;1.70;90.70;;;;;;6159574;23;20195;-82
2022/04/02 21:48:48;;;;;;;23.80;21.97;;;1.70;91.00;;;;;;6159007;23;20148;-82
2022/04/02 21:51:21;;;;;;;23.42;21.60;;;1.70;90.40;;;;;;6157669;23;20258;-82
2022/04/02 21:53:52;;;;;;;22.88;21.27;;;1.70;91.20;;;;;;6157849;23;20601;-81
2022/04/02 21:56:25;;;;;;;22.87;21.23;;;1.60;91.40;;;;;;6158416;23;20629;-82
2022/04/02 21:58:51;;;;;;;26.33;24.38;;;1.60;92.00;;;;;;6157459;23;20384;-83
2022/04/02 22:01:37;;;;;;;25.47;23.53;;;1.70;91.90;;;;;;6157779;23;20252;-83
2022/04/02 22:04:03;;;;;;;24.27;22.23;;;1.80;90.60;;;;;;6157406;23;20693;-83
2022/04/02 22:06:29;;;;;;;22.30;20.65;;;1.60;91.10;;;;;;6157663;23;20199;-83
2022/04/02 22:09:27;;;;;;;23.83;22.17;;;1.50;91.50;;;;;;6181968;23;20220;-82
2022/04/02 22:11:54;;;;;;;23.85;22.15;;;1.50;91.90;;;;;;6206509;23;20526;-82
2022/04/02 22:14:20;;;;;;;24.77;22.98;;;1.50;92.60;;;;;;6181452;23;20536;-82
2022/04/02 22:16:45;;;;;;;24.48;22.60;;;1.60;92.50;;;;;;6181326;23;20580;-82
2022/04/02 22:19:11;;;;;;;24.67;22.97;;;1.70;92.00;;;;;;6180714;23;20211;-82
2022/04/02 22:21:37;;;;;;;22.93;21.40;;;1.70;91.50;;;;;;6181024;23;20395;-82
2022/04/02 22:24:06;;;;;;;22.83;21.17;;;1.60;92.30;;;;;;6181109;23;20168;-83
2022/04/02 22:26:32;;;;;;;22.70;21.17;;;1.60;92.80;;;;;;6181501;23;20422;-83
2022/04/02 22:28:59;;;;;;;23.60;21.67;;;1.60;92.60;;;;;;6180343;23;20157;-83
2022/04/02 22:31:25;;;;;;;23.50;21.83;;;1.60;92.70;;;;;;6182584;23;20479;-83
2022/04/02 22:33:51;;;;;;;22.33;20.90;;;1.60;93.30;;;;;;6182415;23;20175;-83
2022/04/02 22:36:17;;;;;;;24.53;22.70;;;1.60;93.20;;;;;;6206745;23;20243;-83
2022/04/02 22:38:42;;;;;;;26.40;24.57;;;1.70;92.80;;;;;;6181190;23;20185;-83
2022/04/02 22:41:08;;;;;;;23.97;22.37;;;1.60;92.30;;;;;;6180560;23;20394;-83
2022/04/02 22:43:37;;;;;;;25.67;23.47;;;1.60;93.00;;;;;;6181084;23;20169;-83
2022/04/02 22:46:06;;;;;;;26.90;24.55;;;1.70;91.80;;;;;;6180443;23;20191;-82
2022/04/02 22:48:41;;;;;;;25.35;23.63;;;1.60;91.90;;;;;;6180560;23;20148;-82
2022/04/02 22:51:07;;;;;;;25.23;23.43;;;1.70;92.50;;;;;;6180391;23;20155;-81
2022/04/02 22:53:33;;;;;;;24.83;23.13;;;1.60;92.50;;;;;;6180742;23;20438;-83
2022/04/02 22:55:58;;;;;;;24.80;23.10;;;1.50;92.90;;;;;;6180420;23;20463;-83
2022/04/02 22:58:28;;;;;;;25.23;23.50;;;1.50;93.40;;;;;;6180453;23;20549;-83
2022/04/02 23:00:56;;;;;;;23.60;21.90;;;1.70;93.10;;;;;;6179893;23;20168;-83
2022/04/02 23:03:22;;;;;;;25.55;23.73;;;1.60;92.30;;;;;;6181877;23;20663;-82
2022/04/02 23:05:48;;;;;;;24.67;22.93;;;1.60;92.50;;;;;;6183566;23;20183;-82
2022/04/02 23:08:14;;;;;;;24.27;22.57;;;1.60;92.70;;;;;;6207359;23;20703;-82
2022/04/02 23:10:40;;;;;;;24.00;22.40;;;1.70;92.10;;;;;;6182016;23;20156;-82
2022/04/02 23:13:06;;;;;;;23.65;22.05;;;1.70;91.20;;;;;;6181207;23;20765;-81
2022/04/02 23:15:32;;;;;;;23.10;21.40;;;1.60;90.70;;;;;;6181786;23;20232;-82
2022/04/02 23:18:00;;;;;;;24.43;22.73;;;1.70;91.40;;;;;;6207255;23;20551;-82
2022/04/02 23:20:36;;;;;;;24.80;23.08;;;1.60;91.70;;;;;;6182010;23;20176;-83
2022/04/02 23:23:05;;;;;;;22.77;21.27;;;1.70;91.70;;;;;;6182940;23;20136;-81
2022/04/02 23:25:34;;;;;;;24.10;22.40;;;1.60;92.30;;;;;;6181487;23;20271;-81
2022/04/02 23:28:03;;;;;;;23.58;21.90;;;1.60;92.30;;;;;;6183413;23;20372;-82
2022/04/02 23:30:32;;;;;;;24.70;23.00;;;1.60;92.70;;;;;;6206875;23;20656;-82
2022/04/02 23:33:08;;;;;;;25.83;24.03;;;1.70;92.30;;;;;;6182926;23;20159;-82
2022/04/02 23:35:51;;;;;;;25.50;23.70;;;1.70;91.50;;;;;;6181344;23;20425;-82
2022/04/02 23:38:24;;;;;;;25.48;23.67;;;1.60;90.90;;;;;;6182632;23;20147;-83
2022/04/02 23:41:26;;;;;;;25.77;23.98;;;1.60;90.30;;;;;;6181190;23;20156;-81
2022/04/02 23:44:09;;;;;;;23.52;21.40;;;1.50;91.50;;;;;;6181556;23;20160;-81
2022/04/02 23:46:35;;;;;;;24.30;22.48;;;1.50;92.00;;;;;;6182588;23;20175;-80
2022/04/02 23:49:13;;;;;;;24.90;23.00;;;1.60;92.30;;;;;;6181205;23;20574;-80
2022/04/02 23:51:44;;;;;;;24.55;22.80;;;1.50;91.50;;;;;;6181829;23;20384;-81
2022/04/02 23:54:33;;;;;;;24.48;22.77;;;1.50;91.60;;;;;;6181047;23;20384;-81
2022/04/02 23:57:23;;;;;;;17.13;15.80;;;1.60;91.80;;;;;;6206422;23;20164;-82
2022/04/02 23:59:51;;;;;;;21.55;19.88;;;1.70;90.00;;;;;;6182260;23;20192;-82
